Time;durP1;ratioP1;P1;durP2;ratioP2;P2;SDS_P1;SDS_P2;PMS_P1;PMS_P2;Temp;Humidity;BMP_temperature;BMP_pressure;BME280_temperature;BME280_humidity;BME280_pressure;Samples;Min_cycle;Max_cycle;Signal;HPM_P1;HPM_P2
2020/12/26 00:00:14;;;;;;;;;12.00;12.00;;;;;10.28;39.87;98838.88;6160864;28;97658;-61
2020/12/26 00:03:16;;;;;;;;;14.00;12.00;;;;;10.33;39.54;98857.91;6159482;28;97521;-61
2020/12/26 00:06:19;;;;;;;;;13.00;12.40;;;;;10.31;39.70;98859.97;6159873;28;97530;-62
2020/12/26 00:09:20;;;;;;;;;11.00;11.00;;;;;9.76;39.71;98788.94;6145049;28;96933;-61
2020/12/26 00:12:22;;;;;;;;;15.67;11.67;;;;;10.18;39.89;98845.81;6145353;28;97067;-61
2020/12/26 00:15:24;;;;;;;;;14.00;11.50;;;;;10.18;39.61;98862.81;6159729;28;97204;-62
2020/12/26 00:18:25;;;;;;;;;13.60;10.80;;;;;10.12;39.40;98870.88;6158875;28;96776;-61
2020/12/26 00:21:27;;;;;;;;;12.00;11.00;;;;;10.15;39.61;98871.31;6157981;28;96779;-61
2020/12/26 00:24:28;;;;;;;;;10.60;10.60;;;;;9.64;39.75;98811.38;6159113;28;97065;-62
2020/12/26 00:27:30;;;;;;;;;10.00;9.25;;;;;10.03;39.76;98873.03;6159160;28;97627;-61
2020/12/26 00:30:32;;;;;;;;;10.60;9.60;;;;;10.02;40.03;98884.84;6157821;28;97782;-62
2020/12/26 00:33:33;;;;;;;;;12.00;11.00;;;;;10.09;39.96;98890.19;6141665;28;97636;-61
2020/12/26 00:36:37;;;;;;;;;13.00;10.40;;;;;10.05;40.19;98889.00;6157632;28;97513;-61
2020/12/26 00:39:38;;;;;;;;;11.20;10.00;;;;;10.00;40.25;98890.47;6154640;28;97034;-61
2020/12/26 00:42:40;;;;;;;;;11.60;10.00;;;;;10.03;40.45;98881.13;6146509;28;97096;-61
2020/12/26 00:45:41;;;;;;;;;11.75;10.75;;;;;9.76;40.69;98861.63;6152230;28;96930;-62
2020/12/26 00:48:42;;;;;;;;;12.40;10.40;;;;;10.07;40.77;98892.31;6158016;28;98001;-60
2020/12/26 00:51:48;;;;;;;;;9.00;8.50;;;;;9.85;40.92;98860.34;6144250;28;97575;-61
2020/12/26 00:54:51;;;;;;;;;11.00;10.00;;;;;9.99;40.84;98891.50;6152043;28;97086;-60
2020/12/26 00:57:53;;;;;;;;;12.00;10.60;;;;;9.91;41.39;98888.25;6154061;28;97689;-61
2020/12/26 01:00:55;;;;;;;;;13.00;12.00;;;;;9.94;41.43;98885.13;6158593;28;97194;-60
2020/12/26 01:04:15;;;;;;;;;12.40;12.40;;;;;9.98;41.42;98899.78;6143581;28;97372;-60
2020/12/26 01:07:17;;;;;;;;;9.00;8.00;;;;;9.71;41.77;98899.16;6159103;28;96625;-61
2020/12/26 01:10:18;;;;;;;;;13.40;12.40;;;;;9.91;41.93;98910.63;6159006;28;97482;-61
2020/12/26 01:13:20;;;;;;;;;12.00;11.00;;;;;9.92;41.89;98904.19;6157918;28;97610;-61
2020/12/26 01:16:21;;;;;;;;;12.00;12.00;;;;;9.93;41.96;98913.91;6157771;28;96795;-62
2020/12/26 01:19:24;;;;;;;;;10.40;9.80;;;;;9.86;42.05;98909.63;6157383;28;97036;-60
2020/12/26 01:22:25;;;;;;;;;12.00;11.00;;;;;9.59;42.29;98876.63;6157297;28;97097;-61
2020/12/26 01:25:27;;;;;;;;;11.75;11.00;;;;;9.89;42.41;98904.63;6157436;28;97166;-61
2020/12/26 01:28:29;;;;;;;;;14.00;11.00;;;;;9.88;42.40;98889.50;6158239;28;98528;-61
2020/12/26 01:31:30;;;;;;;;;14.00;12.60;;;;;9.84;42.63;98898.25;6158634;28;97579;-60
2020/12/26 01:34:31;;;;;;;;;13.00;11.00;;;;;9.85;42.65;98897.19;6158822;28;99310;-61
2020/12/26 01:37:33;;;;;;;;;14.60;13.00;;;;;9.68;42.81;98872.66;6157861;28;96671;-61
2020/12/26 01:40:35;;;;;;;;;13.00;12.00;;;;;9.85;42.75;98900.72;6158425;28;97022;-60
2020/12/26 01:43:37;;;;;;;;;14.80;12.80;;;;;9.83;42.73;98883.94;6157666;28;97323;-60
2020/12/26 01:46:38;;;;;;;;;14.50;12.50;;;;;9.79;42.92;98906.13;6157996;28;97046;-61
2020/12/26 01:49:41;;;;;;;;;11.20;10.20;;;;;9.78;42.80;98894.53;6153476;28;96935;-60
2020/12/26 01:52:44;;;;;;;;;12.00;10.00;;;;;9.86;42.72;98893.47;6158120;28;97063;-60
2020/12/26 01:55:48;;;;;;;;;14.25;13.00;;;;;9.69;43.03;98878.84;6158269;28;96989;-60
2020/12/26 01:58:50;;;;;;;;;14.40;13.00;;;;;9.48;42.72;98847.75;6150469;28;96625;-60
2020/12/26 02:01:51;;;;;;;;;15.00;13.40;;;;;9.74;42.81;98885.25;6161544;28;97544;-61
2020/12/26 02:04:52;;;;;;;;;13.00;12.00;;;;;9.50;42.74;98856.41;6161893;28;97163;-61
2020/12/26 02:07:54;;;;;;;;;13.50;13.00;;;;;9.54;42.98;98863.81;6162528;28;97072;-60
2020/12/26 02:10:55;;;;;;;;;11.00;11.00;;;;;9.58;42.87;98891.97;6162195;28;98607;-62
2020/12/26 02:13:57;;;;;;;;;13.00;12.00;;;;;9.57;42.98;98884.94;6160832;28;98599;-61
2020/12/26 02:16:58;;;;;;;;;14.20;13.20;;;;;9.48;43.31;98883.50;6162396;28;97615;-61
2020/12/26 02:20:00;;;;;;;;;13.00;13.00;;;;;9.48;43.26;98883.50;6161737;28;96903;-61
2020/12/26 02:23:03;;;;;;;;;12.40;11.40;;;;;9.45;43.33;98883.97;6162383;28;99115;-61
2020/12/26 02:26:04;;;;;;;;;14.00;13.00;;;;;9.52;43.27;98890.16;6162347;28;97220;-61
2020/12/26 02:29:06;;;;;;;;;14.00;12.20;;;;;9.43;43.31;98883.34;6161908;28;97250;-61
2020/12/26 02:32:08;;;;;;;;;15.00;14.00;;;;;9.33;43.51;98887.56;6146213;28;97193;-61
2020/12/26 02:35:09;;;;;;;;;12.60;12.00;;;;;9.19;43.69;98862.53;6161770;28;97074;-62
2020/12/26 02:38:11;;;;;;;;;15.50;12.50;;;;;9.12;44.06;98842.94;6160792;28;97010;-62
2020/12/26 02:41:12;;;;;;;;;13.75;13.00;;;;;9.47;43.83;98895.34;6161091;28;97962;-61
2020/12/26 02:44:14;;;;;;;;;13.50;12.50;;;;;9.46;43.96;98896.38;6160869;28;97314;-61
2020/12/26 02:47:15;;;;;;;;;14.00;13.00;;;;;9.50;43.81;98896.78;6160715;28;97184;-62
2020/12/26 02:50:17;;;;;;;;;14.00;13.00;;;;;9.53;43.94;98899.03;6160987;28;97081;-61
2020/12/26 02:53:18;;;;;;;;;16.60;14.00;;;;;9.53;43.82;98897.16;6127471;28;97127;-61
2020/12/26 02:56:21;;;;;;;;;15.25;14.25;;;;;9.54;43.76;98897.97;6161706;28;97584;-61
2020/12/26 02:59:22;;;;;;;;;14.80;13.00;;;;;9.28;43.79;98860.47;6160809;28;97803;-61
2020/12/26 03:02:24;;;;;;;;;14.00;13.00;;;;;9.26;43.99;98857.97;6160869;28;97480;-61
2020/12/26 03:05:26;;;;;;;;;15.20;14.00;;;;;9.35;43.69;98898.91;6159827;28;97876;-61
2020/12/26 03:08:27;;;;;;;;;16.00;14.60;;;;;9.48;43.46;98906.94;6148535;28;97143;-61
2020/12/26 03:11:28;;;;;;;;;16.00;14.60;;;;;9.48;43.63;98910.44;6153922;28;97727;-61
2020/12/26 03:14:30;;;;;;;;;16.00;15.00;;;;;9.45;43.38;98924.31;6159755;28;97475;-61
2020/12/26 03:17:31;;;;;;;;;13.00;12.00;;;;;9.48;42.96;98923.88;6160006;28;97526;-61
2020/12/26 03:20:33;;;;;;;;;13.00;11.80;;;;;9.43;42.75;98929.06;6161153;28;97434;-61
2020/12/26 03:23:35;;;;;;;;;16.00;15.00;;;;;9.43;42.64;98936.34;6161056;28;96646;-61
2020/12/26 03:26:37;;;;;;;;;14.25;14.25;;;;;9.48;42.68;98940.03;6161029;28;97459;-61
2020/12/26 03:29:38;;;;;;;;;16.00;15.00;;;;;9.42;42.42;98934.69;6160748;28;97626;-61
2020/12/26 03:32:39;;;;;;;;;13.20;12.20;;;;;9.46;42.53;98949.38;6159961;28;98805;-62
2020/12/26 03:35:41;;;;;;;;;14.60;13.00;;;;;9.46;42.55;98946.69;6159877;28;97645;-61
2020/12/26 03:38:42;;;;;;;;;13.00;13.00;;;;;9.46;42.64;98954.75;6160620;28;97688;-61
2020/12/26 03:41:44;;;;;;;;;15.00;13.75;;;;;9.48;42.82;98952.69;6160349;28;96940;-61
2020/12/26 03:44:47;;;;;;;;;16.20;13.80;;;;;9.55;42.41;98954.28;6146033;28;97173;-61
2020/12/26 03:47:48;;;;;;;;;14.00;13.00;;;;;9.48;42.36;98953.47;6157772;28;96926;-62
2020/12/26 03:50:50;;;;;;;;;14.20;12.20;;;;;9.57;42.46;98962.16;6160281;28;97662;-61
2020/12/26 03:53:51;;;;;;;;;14.00;12.00;;;;;9.50;42.67;98964.88;6159916;28;97410;-61
2020/12/26 03:56:52;;;;;;;;;14.60;13.00;;;;;9.46;42.73;98962.81;6159871;28;96986;-61
2020/12/26 03:59:54;;;;;;;;;14.00;12.00;;;;;9.31;42.99;98965.78;6160909;28;97128;-61
2020/12/26 04:02:55;;;;;;;;;13.60;12.60;;;;;9.33;42.99;98963.72;6160536;28;97197;-61
2020/12/26 04:05:57;;;;;;;;;13.00;11.00;;;;;8.99;43.22;98929.03;6153938;28;98699;-61
2020/12/26 04:08:58;;;;;;;;;12.40;11.00;;;;;9.00;43.30;98922.59;6137207;28;96799;-61
2020/12/26 04:12:00;;;;;;;;;13.00;12.00;;;;;8.85;43.28;98905.88;6158765;28;97273;-61
2020/12/26 04:15:01;;;;;;;;;11.00;11.00;;;;;9.18;43.65;98970.38;6159854;28;96835;-61
2020/12/26 04:18:03;;;;;;;;;12.00;11.40;;;;;9.11;43.93;98973.06;6160349;28;98479;-61
2020/12/26 04:21:05;;;;;;;;;12.80;11.80;;;;;9.02;43.96;98972.47;6159976;28;96622;-61
2020/12/26 04:24:07;;;;;;;;;14.00;13.25;;;;;9.09;44.34;98972.44;6160239;28;97320;-61
2020/12/26 04:27:09;;;;;;;;;12.60;11.00;;;;;9.07;44.36;98961.91;6160481;28;97570;-62
2020/12/26 04:30:12;;;;;;;;;14.00;13.00;;;;;9.11;44.38;98971.19;6160024;28;98560;-61
2020/12/26 04:33:13;;;;;;;;;15.00;13.80;;;;;9.13;44.59;98981.75;6160065;28;97449;-61
2020/12/26 04:36:15;;;;;;;;;15.60;14.00;;;;;8.43;45.07;98910.69;6159175;28;97021;-61
2020/12/26 04:39:16;;;;;;;;;15.00;13.60;;;;;8.87;45.34;98979.09;6159121;28;97117;-61
2020/12/26 04:42:20;;;;;;;;;13.00;13.00;;;;;8.86;45.35;98980.94;6160025;28;97061;-61
2020/12/26 04:45:21;;;;;;;;;17.00;14.00;;;;;8.85;45.25;98973.09;6159665;28;97616;-61
2020/12/26 04:48:26;;;;;;;;;15.80;14.40;;;;;8.87;45.32;98985.31;6160119;28;97445;-61
2020/12/26 04:51:32;;;;;;;;;15.00;15.00;;;;;8.89;45.33;98990.47;6159001;28;97906;-61
2020/12/26 04:54:41;;;;;;;;;14.00;13.00;;;;;8.88;45.25;98999.56;6159399;28;97749;-61
2020/12/26 04:57:45;;;;;;;;;15.00;13.50;;;;;8.82;45.14;98995.84;6158687;28;97520;-61
2020/12/26 05:00:47;;;;;;;;;15.00;13.60;;;;;8.81;45.25;98999.56;6158078;28;97501;-62
2020/12/26 05:03:50;;;;;;;;;14.60;12.60;;;;;8.74;45.29;98997.94;6158494;28;97543;-61
2020/12/26 05:06:53;;;;;;;;;13.00;13.00;;;;;8.66;44.83;98999.78;6155569;28;98091;-61
2020/12/26 05:09:55;;;;;;;;;13.00;13.00;;;;;8.81;45.03;99009.50;6139499;28;97051;-61
2020/12/26 05:12:56;;;;;;;;;14.40;13.40;;;;;8.78;45.22;99009.91;6122400;28;98420;-61
2020/12/26 05:15:57;;;;;;;;;13.00;12.00;;;;;8.77;45.12;99002.88;6159514;28;98886;-61
2020/12/26 05:18:59;;;;;;;;;12.60;11.60;;;;;8.84;45.07;99006.41;6159589;28;96461;-60
2020/12/26 05:22:00;;;;;;;;;12.20;11.20;;;;;8.84;45.12;99001.03;6159624;28;99094;-61
2020/12/26 05:25:10;;;;;;;;;11.50;11.00;;;;;8.70;44.76;98989.44;6159243;28;97613;-61
2020/12/26 05:28:19;;;;;;;;;16.00;14.20;;;;;8.83;44.82;99007.44;6143190;28;96632;-61
2020/12/26 05:31:21;;;;;;;;;14.00;13.75;;;;;8.80;44.72;99008.66;6156292;28;96963;-60
2020/12/26 05:34:30;;;;;;;;;13.80;12.00;;;;;8.57;44.72;98976.84;6159775;28;97002;-60
2020/12/26 05:37:32;;;;;;;;;14.00;12.50;;;;;8.82;44.71;99006.59;6163673;28;97637;-60
2020/12/26 05:40:33;;;;;;;;;13.25;12.00;;;;;8.88;44.50;99023.78;6163573;28;97505;-61
2020/12/26 05:43:35;;;;;;;;;17.00;15.00;;;;;8.68;44.50;98980.78;6162739;28;97206;-60
2020/12/26 05:46:36;;;;;;;;;16.40;15.00;;;;;8.83;44.45;99002.06;6163509;28;97503;-60
2020/12/26 05:49:39;;;;;;;;;11.00;11.00;;;;;8.93;44.31;99015.91;6162034;28;97912;-61
2020/12/26 05:52:54;;;;;;;;;14.50;13.00;;;;;8.83;44.17;99008.28;6161564;28;96925;-60
2020/12/26 05:55:55;;;;;;;;;14.00;13.00;;;;;8.82;44.49;99029.97;6145013;28;97349;-61
2020/12/26 05:58:57;;;;;;;;;14.40;14.00;;;;;8.85;44.46;99038.44;6162212;28;97090;-61
2020/12/26 06:02:16;;;;;;;;;11.60;10.60;;;;;8.81;44.33;99037.22;6162610;28;98821;-60
2020/12/26 06:05:19;;;;;;;;;13.60;11.00;;;;;8.92;44.28;99039.28;6158927;28;96534;-60
2020/12/26 06:08:22;;;;;;;;;12.00;11.40;;;;;8.80;44.16;99024.78;6158108;28;96873;-61
2020/12/26 06:11:24;;;;;;;;;16.40;13.40;;;;;9.00;44.14;99040.91;6161130;28;97957;-61
2020/12/26 06:14:25;;;;;;;;;14.60;13.00;;;;;8.79;44.33;98998.13;6161581;28;97573;-60
2020/12/26 06:17:31;;;;;;;;;15.00;12.00;;;;;9.04;44.29;99045.66;6161495;28;97460;-61
2020/12/26 06:20:33;;;;;;;;;14.00;12.00;;;;;9.01;44.27;99054.16;6157062;28;97287;-62
2020/12/26 06:23:44;;;;;;;;;15.00;13.40;;;;;8.86;44.73;99052.72;6162351;28;96500;-60
2020/12/26 06:26:47;;;;;;;;;13.80;12.20;;;;;8.83;44.90;99056.66;6149396;28;98454;-60
2020/12/26 06:29:48;;;;;;;;;14.00;12.00;;;;;8.82;45.07;99067.59;6159491;28;96937;-61
2020/12/26 06:32:51;;;;;;;;;14.40;13.00;;;;;8.73;45.49;99082.28;6160865;28;96774;-60
2020/12/26 06:35:55;;;;;;;;;14.00;13.60;;;;;8.80;45.46;99088.47;6162259;28;97553;-60
2020/12/26 06:38:56;;;;;;;;;16.25;14.50;;;;;8.81;45.88;99077.53;6162299;28;97276;-61
2020/12/26 06:42:13;;;;;;;;;13.80;11.80;;;;;8.85;45.72;99094.91;6161836;28;97196;-61
2020/12/26 06:45:40;;;;;;;;;14.00;13.40;;;;;8.81;45.79;99099.03;6151878;28;96755;-61
2020/12/26 06:48:43;;;;;;;;;13.00;13.00;;;;;8.83;45.85;99144.53;6158063;28;97364;-61
2020/12/26 06:51:44;;;;;;;;;11.00;10.25;;;;;8.83;46.02;99106.91;6160602;28;97395;-61
2020/12/26 06:54:46;;;;;;;;;12.60;12.40;;;;;8.81;45.84;99106.28;6135367;28;97659;-61
2020/12/26 06:57:47;;;;;;;;;11.40;11.00;;;;;8.78;46.03;99112.06;6160299;28;97412;-61
2020/12/26 07:00:49;;;;;;;;;13.75;11.00;;;;;8.79;46.21;99111.88;6160474;28;98354;-61
2020/12/26 07:04:19;;;;;;;;;13.25;13.00;;;;;8.66;46.60;99109.97;6160765;28;97086;-61
2020/12/26 07:07:37;;;;;;;;;12.50;10.50;;;;;8.73;46.66;99114.53;6160843;28;97532;-61
2020/12/26 07:10:39;;;;;;;;;13.60;12.00;;;;;8.72;46.67;99115.56;6160658;28;97755;-61
2020/12/26 07:13:50;;;;;;;;;14.00;13.00;;;;;8.72;46.72;99118.25;6160849;28;97880;-61
2020/12/26 07:16:52;;;;;;;;;12.00;12.00;;;;;8.46;46.77;99082.22;6161338;28;96878;-61
2020/12/26 07:19:58;;;;;;;;;14.00;12.20;;;;;8.69;46.88;99122.19;6161120;28;97480;-61
2020/12/26 07:23:12;;;;;;;;;15.00;13.40;;;;;8.51;46.99;99106.63;6149843;28;96762;-61
2020/12/26 07:26:18;;;;;;;;;14.00;12.00;;;;;8.78;46.66;99133.56;6145487;28;97323;-61
2020/12/26 07:29:27;;;;;;;;;17.00;14.00;;;;;8.65;46.85;99132.50;6161112;28;97423;-61
2020/12/26 07:32:47;;;;;;;;;15.75;14.00;;;;;8.67;46.79;99135.00;6160747;28;96573;-61
2020/12/26 07:35:49;;;;;;;;;17.67;16.67;;;;;8.74;46.98;99137.72;6161069;28;97249;-61
2020/12/26 07:39:02;;;;;;;;;18.00;17.00;;;;;8.72;46.87;99134.38;6161049;28;97086;-61
2020/12/26 07:42:04;;;;;;;;;18.00;15.40;;;;;8.73;46.82;99141.41;6160780;28;96916;-61
2020/12/26 07:45:13;;;;;;;;;17.50;15.50;;;;;8.83;46.78;99139.16;6160384;28;96768;-61
2020/12/26 07:48:15;;;;;;;;;19.00;17.00;;;;;8.83;46.67;99145.38;6147685;28;97675;-61
2020/12/26 07:51:16;;;;;;;;;21.00;18.00;;;;;8.94;46.63;99143.94;6159977;28;97460;-61
2020/12/26 07:54:18;;;;;;;;;18.50;17.00;;;;;9.05;46.65;99152.22;6150627;28;96728;-61
2020/12/26 07:57:20;;;;;;;;;19.00;17.00;;;;;8.55;47.07;99097.13;6152966;28;96721;-61
2020/12/26 08:00:24;;;;;;;;;21.20;19.20;;;;;8.90;47.36;99156.13;6163584;28;97899;-61
2020/12/26 08:03:25;;;;;;;;;19.60;17.40;;;;;8.75;47.53;99144.75;6159312;28;97500;-61
2020/12/26 08:06:28;;;;;;;;;18.80;16.80;;;;;8.37;47.73;99088.81;6160163;28;96868;-61
2020/12/26 08:09:29;;;;;;;;;17.00;16.60;;;;;8.76;47.63;99157.97;6158546;28;97494;-61
2020/12/26 08:12:30;;;;;;;;;17.00;16.00;;;;;8.77;47.68;99159.63;6160085;28;97110;-61
2020/12/26 08:15:32;;;;;;;;;21.40;17.60;;;;;8.76;47.59;99151.75;6160163;28;97091;-61
2020/12/26 08:18:36;;;;;;;;;18.75;15.75;;;;;8.80;47.32;99156.53;6159863;28;96623;-61
2020/12/26 08:21:37;;;;;;;;;19.00;17.00;;;;;8.70;47.21;99154.22;6143629;28;97223;-61
2020/12/26 08:24:39;;;;;;;;;19.50;18.00;;;;;8.78;46.93;99179.28;6158733;28;97449;-62
2020/12/26 08:27:40;;;;;;;;;21.75;18.50;;;;;8.80;46.79;99169.13;6159093;28;97963;-61
2020/12/26 08:30:48;;;;;;;;;18.60;16.60;;;;;8.81;46.37;99187.75;6158056;28;98903;-61
2020/12/26 08:34:01;;;;;;;;;17.40;15.00;;;;;8.76;46.35;99184.84;6153863;28;96664;-61
2020/12/26 08:37:13;;;;;;;;;15.25;14.50;;;;;8.72;46.50;99190.81;6156945;28;97940;-61
2020/12/26 08:40:16;;;;;;;;;17.00;15.00;;;;;8.69;46.22;99202.81;6143520;28;97596;-61
2020/12/26 08:43:17;;;;;;;;;15.00;14.60;;;;;8.48;46.32;99198.41;6160174;28;97689;-62
2020/12/26 08:46:22;;;;;;;;;15.00;13.75;;;;;8.60;46.02;99183.34;6159375;28;96836;-61
2020/12/26 08:49:24;;;;;;;;;14.50;13.00;;;;;8.52;45.93;99204.19;6157139;28;97657;-61
2020/12/26 08:52:26;;;;;;;;;15.00;13.40;;;;;8.52;45.71;99210.41;6149793;28;97489;-61
2020/12/26 08:55:28;;;;;;;;;15.00;14.00;;;;;8.41;45.57;99162.59;6143330;28;96804;-60
2020/12/26 08:58:31;;;;;;;;;16.00;15.00;;;;;8.83;45.61;99206.38;6159316;28;97291;-61
2020/12/26 09:01:34;;;;;;;;;13.75;13.25;;;;;8.66;45.48;99181.72;6159243;28;97535;-61
2020/12/26 09:04:35;;;;;;;;;15.00;13.00;;;;;8.97;45.04;99213.44;6145278;28;97006;-62
2020/12/26 09:07:36;;;;;;;;;15.80;12.80;;;;;9.01;45.18;99215.53;6142460;28;97856;-61
2020/12/26 09:10:39;;;;;;;;;16.00;14.00;;;;;9.12;45.06;99214.94;6158342;28;97240;-61
2020/12/26 09:13:47;;;;;;;;;16.33;13.00;;;;;9.01;45.03;99218.22;6158371;28;97503;-61
2020/12/26 09:16:59;;;;;;;;;15.00;13.00;;;;;9.10;45.42;99219.69;6147521;28;97389;-60
2020/12/26 09:20:01;;;;;;;;;17.20;14.20;;;;;9.03;45.81;99205.41;6150663;28;98113;-61
2020/12/26 09:23:11;;;;;;;;;16.00;13.80;;;;;8.97;46.23;99202.69;6150270;28;97036;-60
2020/12/26 09:26:21;;;;;;;;;15.40;14.60;;;;;8.98;46.62;99218.63;6143227;28;97585;-61
2020/12/26 09:29:24;;;;;;;;;19.00;18.00;;;;;8.90;46.81;99212.59;6158951;28;96459;-60
2020/12/26 09:32:25;;;;;;;;;16.00;14.80;;;;;8.91;47.12;99214.25;6158434;28;98605;-60
2020/12/26 09:35:30;;;;;;;;;20.00;17.75;;;;;8.87;47.19;99216.53;6158975;28;97369;-60
2020/12/26 09:38:32;;;;;;;;;16.20;16.00;;;;;9.04;46.97;99222.38;6158758;28;97017;-60
2020/12/26 09:41:44;;;;;;;;;19.00;17.00;;;;;9.09;46.91;99226.06;6158751;28;97149;-61
2020/12/26 09:44:45;;;;;;;;;18.25;16.00;;;;;9.10;47.01;99229.59;6157814;28;97570;-61
2020/12/26 09:47:47;;;;;;;;;19.00;17.00;;;;;9.03;47.17;99220.72;6153544;28;97037;-61
2020/12/26 09:50:48;;;;;;;;;17.20;16.20;;;;;9.01;47.48;99215.53;6147458;28;98046;-60
2020/12/26 09:53:50;;;;;;;;;19.00;17.00;;;;;9.06;47.36;99212.22;6156969;28;97590;-61
2020/12/26 09:56:54;;;;;;;;;21.75;17.00;;;;;9.05;47.46;99208.69;6155493;28;97152;-61
2020/12/26 09:59:55;;;;;;;;;18.60;16.60;;;;;9.07;47.35;99213.88;6158806;28;97730;-61
2020/12/26 10:02:57;;;;;;;;;19.20;17.20;;;;;9.22;46.93;99211.00;6158645;28;96691;-61
2020/12/26 10:05:59;;;;;;;;;18.40;16.00;;;;;9.30;46.91;99211.63;6158353;28;97105;-61
2020/12/26 10:09:01;;;;;;;;;15.25;13.50;;;;;9.33;46.33;99215.78;6159163;28;97754;-61
2020/12/26 10:12:03;;;;;;;;;17.60;16.60;;;;;9.17;46.18;99216.19;6158872;28;97135;-60
2020/12/26 10:15:04;;;;;;;;;19.40;17.00;;;;;9.20;46.56;99223.81;6157446;28;97001;-60
2020/12/26 10:18:06;;;;;;;;;15.00;14.00;;;;;9.22;46.07;99222.59;6158606;28;97522;-60
2020/12/26 10:21:07;;;;;;;;;18.50;16.50;;;;;9.31;45.97;99228.59;6158321;28;97067;-61
2020/12/26 10:24:09;;;;;;;;;15.00;13.80;;;;;9.32;45.52;99225.72;6153438;28;97436;-61
2020/12/26 10:27:10;;;;;;;;;13.00;12.00;;;;;9.46;44.79;99223.88;6165683;28;97530;-61
2020/12/26 10:30:11;;;;;;;;;12.60;12.00;;;;;9.54;44.75;99226.34;6162286;28;97655;-61
2020/12/26 10:33:13;;;;;;;;;15.00;13.20;;;;;9.74;43.88;99215.56;6164297;28;97431;-62
2020/12/26 10:36:14;;;;;;;;;13.00;12.00;;;;;9.89;43.89;99213.50;6162234;28;98101;-61
2020/12/26 10:39:16;;;;;;;;;13.75;11.00;;;;;10.34;42.55;99220.69;6162260;28;98386;-61
2020/12/26 10:42:17;;;;;;;;;10.40;9.00;;;;;10.50;41.75;99207.78;6160569;28;97038;-61
2020/12/26 10:45:19;;;;;;;;;10.00;9.00;;;;;10.45;41.08;99197.63;6144076;28;96650;-61
2020/12/26 10:48:20;;;;;;;;;11.80;10.40;;;;;10.60;40.72;99208.16;6161611;28;97878;-61
2020/12/26 10:51:22;;;;;;;;;9.60;8.00;;;;;10.63;40.48;99200.47;6162325;28;97188;-61
2020/12/26 10:54:23;;;;;;;;;10.60;10.00;;;;;10.62;40.43;99206.06;6161463;28;97680;-61
2020/12/26 10:57:24;;;;;;;;;9.00;8.80;;;;;10.43;40.12;99203.22;6144726;28;97693;-63
2020/12/26 11:00:27;;;;;;;;;11.40;11.00;;;;;10.25;40.28;99219.25;6161663;28;97570;-61
2020/12/26 11:03:29;;;;;;;;;13.00;10.00;;;;;10.13;40.54;99215.50;6156344;28;96648;-62
2020/12/26 11:06:30;;;;;;;;;12.20;11.60;;;;;10.05;41.14;99218.44;6158171;28;97562;-62
2020/12/26 11:09:32;;;;;;;;;9.00;8.60;;;;;9.83;40.84;99184.69;6161474;28;97567;-64
2020/12/26 11:12:33;;;;;;;;;14.00;11.00;;;;;9.73;40.85;99178.91;6160510;28;98103;-62
2020/12/26 11:15:35;;;;;;;;;12.00;11.80;;;;;9.84;40.27;99189.88;6160241;28;97179;-63
2020/12/26 11:18:36;;;;;;;;;12.50;10.00;;;;;9.91;39.74;99214.13;6161036;28;97176;-62
2020/12/26 11:21:37;;;;;;;;;10.25;8.25;;;;;10.01;39.75;99217.22;6159032;28;97746;-62
2020/12/26 11:24:39;;;;;;;;;8.50;8.00;;;;;10.17;40.09;99218.63;6158680;28;97269;-63
2020/12/26 11:27:40;;;;;;;;;14.00;11.40;;;;;10.30;39.68;99219.44;6160223;28;96698;-62
2020/12/26 11:30:41;;;;;;;;;9.75;9.00;;;;;10.41;39.59;99217.94;6158962;28;97653;-62
2020/12/26 11:33:43;;;;;;;;;11.00;10.00;;;;;10.46;39.14;99211.94;6158100;28;98048;-62
2020/12/26 11:36:44;;;;;;;;;12.00;11.00;;;;;10.48;39.18;99216.06;6157621;28;97401;-62
2020/12/26 11:39:46;;;;;;;;;13.20;11.20;;;;;10.32;38.85;99211.97;6158781;28;97486;-63
2020/12/26 11:42:47;;;;;;;;;11.00;9.50;;;;;10.39;38.80;99223.56;6158606;28;97456;-62
2020/12/26 11:45:49;;;;;;;;;12.00;12.00;;;;;10.43;38.97;99214.00;6143310;28;97340;-61
2020/12/26 11:48:51;;;;;;;;;13.00;11.00;;;;;10.55;38.50;99208.78;6159772;28;97549;-61
2020/12/26 11:51:54;;;;;;;;;13.80;12.80;;;;;10.59;38.20;99214.56;6159595;28;97019;-63
2020/12/26 11:54:55;;;;;;;;;12.40;11.40;;;;;10.57;38.50;99222.03;6158885;28;96743;-62
2020/12/26 11:57:57;;;;;;;;;11.60;10.60;;;;;10.60;38.66;99227.03;6125378;28;98926;-61
2020/12/26 12:00:59;;;;;;;;;11.00;10.40;;;;;9.92;38.21;99106.16;6143444;28;97130;-61
2020/12/26 12:04:01;;;;;;;;;10.00;9.60;;;;;10.60;37.80;99222.47;6159642;28;98011;-61
2020/12/26 12:07:03;;;;;;;;;11.00;10.50;;;;;10.51;38.11;99209.41;6159111;28;98658;-61
2020/12/26 12:10:04;;;;;;;;;9.00;8.00;;;;;9.95;38.20;99142.63;6158659;28;97449;-61
2020/12/26 12:13:08;;;;;;;;;12.00;10.40;;;;;9.89;37.86;99143.47;6149092;28;97465;-61
2020/12/26 12:16:15;;;;;;;;;7.00;7.00;;;;;10.69;37.87;99231.97;6159268;28;97623;-61
2020/12/26 12:19:16;;;;;;;;;10.20;9.00;;;;;10.92;37.40;99222.50;6159290;28;96994;-61
2020/12/26 12:22:18;;;;;;;;;9.00;8.00;;;;;11.22;37.24;99221.72;6159696;28;96712;-61
2020/12/26 12:25:19;;;;;;;;;10.00;10.00;;;;;11.18;36.92;99200.78;6158902;28;97594;-61
2020/12/26 12:28:21;;;;;;;;;12.60;11.60;;;;;11.55;36.61;99234.13;6158618;28;97512;-61
2020/12/26 12:31:24;;;;;;;;;10.40;10.00;;;;;11.52;36.66;99221.09;6158471;28;98625;-61
2020/12/26 12:34:26;;;;;;;;;10.00;9.00;;;;;11.58;36.72;99225.63;6159137;28;97716;-61
2020/12/26 12:37:28;;;;;;;;;10.40;9.60;;;;;11.41;36.79;99228.00;6159055;28;97816;-61
2020/12/26 12:40:29;;;;;;;;;13.00;11.00;;;;;11.34;37.18;99221.03;6159023;28;97131;-61
2020/12/26 12:43:31;;;;;;;;;12.00;11.00;;;;;10.99;37.17;99178.28;6154506;28;96629;-61
2020/12/26 12:46:32;;;;;;;;;12.00;12.00;;;;;10.98;37.42;99203.59;6140171;28;98485;-61
2020/12/26 12:49:33;;;;;;;;;10.20;9.20;;;;;10.96;37.50;99232.66;6141943;28;97199;-61
2020/12/26 12:52:35;;;;;;;;;13.00;11.25;;;;;10.97;37.64;99238.88;6158911;28;98738;-61
2020/12/26 12:55:37;;;;;;;;;11.20;9.80;;;;;10.91;38.05;99242.44;6148038;28;97391;-61
2020/12/26 12:58:38;;;;;;;;;10.40;10.00;;;;;10.52;38.78;99233.47;6159111;28;97629;-62
2020/12/26 13:01:40;;;;;;;;;12.25;11.25;;;;;10.59;38.88;99258.56;6162385;28;96638;-62
2020/12/26 13:04:41;;;;;;;;;11.25;10.50;;;;;10.46;39.49;99268.56;6157864;28;97811;-61
2020/12/26 13:07:42;;;;;;;;;13.00;11.00;;;;;10.35;39.13;99262.78;6157206;28;97648;-62
2020/12/26 13:10:45;;;;;;;;;13.00;12.00;;;;;10.21;39.08;99254.94;6139081;28;97319;-62
2020/12/26 13:13:46;;;;;;;;;12.75;11.50;;;;;10.04;39.47;99267.97;6159936;28;97646;-63
2020/12/26 13:16:48;;;;;;;;;15.00;11.00;;;;;10.12;39.54;99266.91;6158533;28;98697;-62
2020/12/26 13:19:50;;;;;;;;;14.00;13.00;;;;;10.03;39.97;99266.31;6157419;28;97521;-62
2020/12/26 13:22:51;;;;;;;;;12.00;11.00;;;;;10.03;39.97;99274.38;6158659;28;97004;-63
2020/12/26 13:25:53;;;;;;;;;13.00;11.00;;;;;9.88;40.06;99274.59;6159370;28;96856;-63
2020/12/26 13:28:54;;;;;;;;;11.80;10.00;;;;;9.91;40.22;99281.44;6160633;28;97096;-62
2020/12/26 13:31:56;;;;;;;;;15.00;12.40;;;;;9.61;40.64;99245.19;6169379;28;96891;-61
2020/12/26 13:34:57;;;;;;;;;12.20;11.20;;;;;9.87;40.33;99278.31;6158962;28;97089;-61
2020/12/26 13:37:59;;;;;;;;;14.00;11.40;;;;;9.88;39.69;99274.59;6159370;28;97020;-63
2020/12/26 13:41:00;;;;;;;;;12.50;10.50;;;;;9.57;39.57;99250.16;6158933;28;97031;-61
2020/12/26 13:44:02;;;;;;;;;14.00;13.00;;;;;9.81;39.70;99281.88;6159538;28;98840;-63
2020/12/26 13:47:04;;;;;;;;;13.00;13.00;;;;;9.83;39.66;99273.56;6141701;28;98288;-61
2020/12/26 13:50:05;;;;;;;;;14.50;14.00;;;;;9.72;39.33;99277.72;6158938;28;97451;-62
2020/12/26 13:53:07;;;;;;;;;16.00;14.40;;;;;9.73;39.56;99283.91;6149532;28;96581;-62
2020/12/26 13:56:08;;;;;;;;;15.00;13.80;;;;;9.73;39.26;99281.22;6160525;28;97452;-62
2020/12/26 13:59:28;;;;;;;;;15.40;14.40;;;;;9.79;39.03;99283.09;6162979;28;98114;-62
2020/12/26 14:02:30;;;;;;;;;14.40;13.60;;;;;9.83;38.41;99282.47;6162845;28;97065;-63
2020/12/26 14:05:34;;;;;;;;;11.00;10.00;;;;;9.69;37.97;99278.13;6146020;28;100059;-62
2020/12/26 14:08:38;;;;;;;;;15.00;12.00;;;;;9.70;38.20;99278.94;6132059;28;96894;-63